Time;durP1;ratioP1;P1;durP2;ratioP2;P2;SDS_P1;SDS_P2;PMS_P1;PMS_P2;Temp;Humidity;BMP_temperature;BMP_pressure;BME280_temperature;BME280_humidity;BME280_pressure;Samples;Min_cycle;Max_cycle;Signal;HPM_P1;HPM_P2
2023/01/31 00:02:23;;;;;;;;;43.25;37.75;;;;;;;;4920828;28;46325;-77
2023/01/31 00:04:49;;;;;;;;;47.50;38.00;;;;;;;;4919704;28;45415;-76
2023/01/31 00:07:14;;;;;;;;;42.75;40.25;;;;;;;;4920973;28;45339;-76
2023/01/31 00:09:39;;;;;;;;;48.25;40.50;;;;;;;;4921753;28;45563;-76
2023/01/31 00:12:05;;;;;;;;;53.25;41.50;;;;;;;;4921373;28;46125;-76
2023/01/31 00:14:30;;;;;;;;;47.50;39.00;;;;;;;;4920882;28;45362;-73
2023/01/31 00:16:55;;;;;;;;;49.75;41.75;;;;;;;;4920977;28;45463;-76
2023/01/31 00:19:20;;;;;;;;;51.00;41.00;;;;;;;;4919281;28;45511;-76
2023/01/31 00:21:45;;;;;;;;;41.00;36.50;;;;;;;;4920380;28;46088;-75
2023/01/31 00:24:11;;;;;;;;;46.50;42.00;;;;;;;;4920495;28;45351;-76
2023/01/31 00:26:36;;;;;;;;;47.75;40.75;;;;;;;;4920912;28;45388;-76
2023/01/31 00:29:03;;;;;;;;;45.00;38.50;;;;;;;;4920362;28;45347;-75
2023/01/31 00:31:29;;;;;;;;;42.00;39.00;;;;;;;;4920345;28;46453;-75
2023/01/31 00:33:55;;;;;;;;;50.00;43.25;;;;;;;;4920687;28;45248;-75
2023/01/31 00:36:22;;;;;;;;;60.75;46.25;;;;;;;;4919264;28;45389;-76
2023/01/31 00:38:51;;;;;;;;;49.50;41.75;;;;;;;;4919953;28;45258;-76
2023/01/31 00:41:17;;;;;;;;;54.00;44.00;;;;;;;;4920376;28;46910;-76
2023/01/31 00:43:43;;;;;;;;;55.75;43.50;;;;;;;;4920425;28;45331;-76
2023/01/31 00:46:08;;;;;;;;;48.25;41.25;;;;;;;;4920398;28;45243;-76
2023/01/31 00:48:33;;;;;;;;;55.00;44.50;;;;;;;;4920416;28;45374;-76
2023/01/31 00:50:58;;;;;;;;;56.50;45.50;;;;;;;;4920142;28;45664;-76
2023/01/31 00:53:24;;;;;;;;;61.75;48.75;;;;;;;;4919784;28;45306;-76
2023/01/31 00:55:50;;;;;;;;;59.00;47.50;;;;;;;;4920175;28;45231;-76
2023/01/31 00:58:15;;;;;;;;;57.25;46.00;;;;;;;;4918906;28;45367;-76
2023/01/31 01:00:40;;;;;;;;;56.00;45.25;;;;;;;;4920009;28;45672;-76
2023/01/31 01:03:06;;;;;;;;;56.50;46.25;;;;;;;;4920086;28;45335;-76
2023/01/31 01:05:31;;;;;;;;;58.00;48.75;;;;;;;;4919911;28;45264;-76
2023/01/31 01:07:56;;;;;;;;;57.00;47.50;;;;;;;;4919731;28;45415;-76
2023/01/31 01:10:21;;;;;;;;;55.00;44.00;;;;;;;;4919849;28;47376;-76
2023/01/31 01:12:46;;;;;;;;;57.25;45.00;;;;;;;;4919857;28;45361;-76
2023/01/31 01:15:12;;;;;;;;;57.00;47.75;;;;;;;;4919978;28;45324;-76
2023/01/31 01:17:37;;;;;;;;;59.75;46.50;;;;;;;;4919668;28;45537;-76
2023/01/31 01:20:02;;;;;;;;;56.75;46.25;;;;;;;;4919558;28;46257;-75
2023/01/31 01:22:28;;;;;;;;;61.75;49.50;;;;;;;;4919694;28;45350;-76
2023/01/31 01:24:53;;;;;;;;;60.25;50.75;;;;;;;;4919926;28;45386;-76
2023/01/31 01:27:19;;;;;;;;;50.75;43.75;;;;;;;;4919605;28;45379;-76
2023/01/31 01:29:44;;;;;;;;;52.75;42.75;;;;;;;;4919551;28;45393;-76
2023/01/31 01:32:09;;;;;;;;;43.75;37.25;;;;;;;;4919104;28;45463;-76
2023/01/31 01:34:35;;;;;;;;;59.25;48.75;;;;;;;;4919902;28;45524;-76
2023/01/31 01:37:00;;;;;;;;;63.50;50.50;;;;;;;;4917966;28;45284;-75
2023/01/31 01:39:28;;;;;;;;;49.75;41.50;;;;;;;;4919554;28;46179;-76
2023/01/31 01:41:54;;;;;;;;;42.25;38.00;;;;;;;;4919636;28;45275;-76
2023/01/31 01:44:38;;;;;;;;;40.00;37.25;;;;;;;;4919725;28;45268;-76
2023/01/31 01:47:03;;;;;;;;;34.50;30.75;;;;;;;;4919358;28;45291;-76
2023/01/31 01:49:34;;;;;;;;;38.75;33.75;;;;;;;;4919299;28;45310;-76
2023/01/31 01:52:01;;;;;;;;;47.00;39.75;;;;;;;;4919247;28;45432;-76
2023/01/31 01:54:29;;;;;;;;;41.00;35.50;;;;;;;;4918147;28;45406;-75
2023/01/31 01:56:56;;;;;;;;;48.00;36.50;;;;;;;;4919594;28;45206;-76
2023/01/31 01:59:24;;;;;;;;;35.00;33.75;;;;;;;;4918897;28;46260;-76
2023/01/31 02:01:50;;;;;;;;;32.25;29.75;;;;;;;;4917986;28;46249;-76
2023/01/31 02:04:20;;;;;;;;;36.75;30.75;;;;;;;;4919397;28;45354;-76
2023/01/31 02:06:46;;;;;;;;;37.25;31.75;;;;;;;;4919430;28;45449;-76
2023/01/31 02:09:30;;;;;;;;;36.25;31.75;;;;;;;;4919788;28;45430;-75
2023/01/31 02:11:55;;;;;;;;;36.00;32.75;;;;;;;;4919703;28;45714;-76
2023/01/31 02:14:21;;;;;;;;;39.25;34.00;;;;;;;;4919617;28;45237;-75
2023/01/31 02:16:46;;;;;;;;;35.75;34.50;;;;;;;;4917915;28;45297;-76
2023/01/31 02:19:23;;;;;;;;;33.50;30.50;;;;;;;;4918831;28;46164;-76
2023/01/31 02:21:51;;;;;;;;;32.25;28.25;;;;;;;;4918677;28;45298;-76
2023/01/31 02:24:46;;;;;;;;;31.50;31.50;;;;;;;;4918729;28;45362;-77
2023/01/31 02:27:30;;;;;;;;;34.25;32.75;;;;;;;;4918326;28;45333;-76
2023/01/31 02:30:11;;;;;;;;;36.00;35.25;;;;;;;;4918360;28;46265;-76
2023/01/31 02:32:59;;;;;;;;;34.00;31.25;;;;;;;;4918815;28;45347;-77
2023/01/31 02:35:30;;;;;;;;;37.00;31.75;;;;;;;;4918810;28;45419;-76
2023/01/31 02:37:58;;;;;;;;;42.25;35.00;;;;;;;;4918732;28;45293;-76
2023/01/31 02:40:23;;;;;;;;;35.25;30.25;;;;;;;;4918759;28;46322;-73
2023/01/31 02:42:57;;;;;;;;;37.75;34.00;;;;;;;;4918643;28;45380;-75
2023/01/31 02:45:35;;;;;;;;;34.50;30.00;;;;;;;;4918806;28;45294;-77
2023/01/31 02:48:00;;;;;;;;;44.75;37.50;;;;;;;;4918561;28;45368;-76
2023/01/31 02:50:25;;;;;;;;;40.75;32.00;;;;;;;;4918363;28;46111;-74
2023/01/31 02:52:50;;;;;;;;;40.00;34.50;;;;;;;;4918434;28;45383;-76
2023/01/31 02:58:11;;;;;;;;;33.50;32.25;;;;;;;;4917391;28;45394;-76
2023/01/31 03:00:39;;;;;;;;;36.50;36.00;;;;;;;;4918345;28;46075;-77
2023/01/31 03:03:06;;;;;;;;;34.25;29.75;;;;;;;;4918268;28;45350;-76
2023/01/31 03:05:31;;;;;;;;;41.50;37.00;;;;;;;;4918125;28;45236;-73
2023/01/31 03:07:59;;;;;;;;;30.50;30.50;;;;;;;;4918128;28;45200;-76
2023/01/31 03:10:30;;;;;;;;;33.75;31.00;;;;;;;;4918130;28;45402;-74
2023/01/31 03:13:13;;;;;;;;;43.00;35.75;;;;;;;;4917997;28;45349;-76
2023/01/31 03:18:46;;;;;;;;;50.75;36.75;;;;;;;;4917912;28;45388;-74
2023/01/31 03:21:31;;;;;;;;;40.25;35.50;;;;;;;;4908962;28;46827;-76
2023/01/31 03:23:56;;;;;;;;;40.25;34.75;;;;;;;;4899089;28;45359;-75
2023/01/31 03:26:23;;;;;;;;;38.50;33.75;;;;;;;;4899138;28;45353;-76
2023/01/31 03:28:53;;;;;;;;;42.50;36.25;;;;;;;;4899060;28;45533;-75
2023/01/31 03:31:22;;;;;;;;;40.75;36.00;;;;;;;;4898536;28;46442;-76
2023/01/31 03:33:49;;;;;;;;;40.00;36.50;;;;;;;;4898626;28;45510;-75
2023/01/31 03:36:14;;;;;;;;;36.00;33.75;;;;;;;;4898693;28;45402;-76
2023/01/31 03:39:02;;;;;;;;;40.25;34.75;;;;;;;;4898708;28;45344;-76
2023/01/31 03:41:37;;;;;;;;;36.00;36.00;;;;;;;;4898553;28;46343;-77
2023/01/31 03:44:05;;;;;;;;;35.00;33.75;;;;;;;;4898915;29;45450;-76
2023/01/31 03:46:37;;;;;;;;;35.75;33.00;;;;;;;;4898934;28;45239;-77
2023/01/31 03:49:07;;;;;;;;;32.00;31.75;;;;;;;;4898485;28;45405;-77
2023/01/31 03:51:35;;;;;;;;;38.00;32.25;;;;;;;;4899747;28;45364;-77
2023/01/31 03:54:04;;;;;;;;;38.75;34.25;;;;;;;;4917562;28;45398;-76
2023/01/31 03:56:44;;;;;;;;;35.25;28.00;;;;;;;;4917554;28;45400;-76
2023/01/31 03:59:19;;;;;;;;;31.75;30.00;;;;;;;;4917492;28;45469;-76
2023/01/31 04:01:49;;;;;;;;;31.00;29.25;;;;;;;;4917043;28;45385;-75
2023/01/31 04:04:18;;;;;;;;;27.50;27.25;;;;;;;;4917493;28;45346;-76
2023/01/31 04:06:44;;;;;;;;;30.50;27.25;;;;;;;;4917442;28;45378;-76
2023/01/31 04:09:09;;;;;;;;;37.75;32.75;;;;;;;;4917649;28;45350;-76
2023/01/31 04:11:36;;;;;;;;;34.75;27.75;;;;;;;;4917530;28;45496;-76
2023/01/31 04:14:01;;;;;;;;;29.75;27.75;;;;;;;;4917427;28;45369;-76
2023/01/31 04:16:26;;;;;;;;;41.00;34.75;;;;;;;;4916992;28;45380;-75
2023/01/31 04:18:51;;;;;;;;;31.75;27.00;;;;;;;;4917366;28;45421;-75
2023/01/31 04:21:17;;;;;;;;;36.00;30.50;;;;;;;;4917484;28;45366;-76
2023/01/31 04:23:42;;;;;;;;;37.00;30.50;;;;;;;;4917295;28;45314;-76
2023/01/31 04:26:07;;;;;;;;;34.25;32.25;;;;;;;;4917619;28;45278;-76
2023/01/31 04:28:32;;;;;;;;;31.50;30.00;;;;;;;;4917513;28;45351;-76
2023/01/31 04:30:57;;;;;;;;;36.00;29.00;;;;;;;;4916725;28;45464;-75
2023/01/31 04:33:23;;;;;;;;;37.75;33.50;;;;;;;;4918993;28;45499;-76
2023/01/31 04:35:51;;;;;;;;;33.75;32.00;;;;;;;;4920765;28;45409;-76
2023/01/31 04:38:16;;;;;;;;;26.25;23.00;;;;;;;;4919957;28;45383;-76
2023/01/31 04:40:42;;;;;;;;;22.00;19.25;;;;;;;;4920275;28;47120;-75
2023/01/31 04:43:07;;;;;;;;;23.25;21.75;;;;;;;;4921333;28;45335;-76
2023/01/31 04:45:32;;;;;;;;;22.75;21.75;;;;;;;;4921466;28;45313;-76
2023/01/31 04:47:57;;;;;;;;;22.75;19.00;;;;;;;;4920709;28;45379;-77
2023/01/31 04:50:22;;;;;;;;;16.00;12.50;;;;;;;;4920046;28;46742;-77
2023/01/31 04:52:48;;;;;;;;;19.50;18.00;;;;;;;;4920308;28;45340;-77
2023/01/31 04:55:13;;;;;;;;;17.25;14.00;;;;;;;;4920648;28;45381;-76
2023/01/31 04:57:39;;;;;;;;;20.50;15.50;;;;;;;;4920137;28;45294;-76
2023/01/31 05:00:04;;;;;;;;;20.25;19.25;;;;;;;;4920030;28;46268;-76
2023/01/31 05:02:30;;;;;;;;;16.75;13.25;;;;;;;;4919922;28;45399;-76
2023/01/31 05:04:55;;;;;;;;;18.00;17.00;;;;;;;;4920163;28;45290;-76
2023/01/31 05:07:20;;;;;;;;;7.75;6.00;;;;;;;;4920203;28;45350;-76
2023/01/31 05:09:46;;;;;;;;;20.25;18.25;;;;;;;;4919890;28;46388;-77
2023/01/31 05:12:11;;;;;;;;;18.50;14.25;;;;;;;;4919867;28;45609;-77
2023/01/31 05:14:36;;;;;;;;;14.00;14.00;;;;;;;;4920524;28;45342;-77
2023/01/31 05:17:02;;;;;;;;;18.25;14.50;;;;;;;;4920457;28;45326;-77
2023/01/31 05:19:28;;;;;;;;;16.00;13.25;;;;;;;;4920439;28;45483;-77
2023/01/31 05:21:59;;;;;;;;;18.00;16.00;;;;;;;;4920755;28;45273;-77
2023/01/31 05:24:31;;;;;;;;;13.50;11.75;;;;;;;;4920682;28;45362;-78
2023/01/31 05:26:57;;;;;;;;;13.50;12.75;;;;;;;;4920866;28;45307;-76
2023/01/31 05:29:30;;;;;;;;;14.00;12.50;;;;;;;;4920309;28;46570;-76
2023/01/31 05:31:56;;;;;;;;;9.00;7.75;;;;;;;;4919623;28;45385;-76
2023/01/31 05:34:24;;;;;;;;;11.75;11.75;;;;;;;;4919661;28;45358;-75
2023/01/31 05:36:49;;;;;;;;;13.50;11.00;;;;;;;;4919510;28;45400;-76
2023/01/31 05:39:14;;;;;;;;;14.00;12.25;;;;;;;;4919360;28;45554;-76
2023/01/31 05:41:39;;;;;;;;;14.50;12.50;;;;;;;;4919379;28;45595;-76
2023/01/31 05:44:05;;;;;;;;;16.75;12.00;;;;;;;;4918608;28;45338;-76
2023/01/31 05:46:30;;;;;;;;;18.50;16.50;;;;;;;;4919183;28;45429;-76
2023/01/31 05:48:55;;;;;;;;;13.25;12.00;;;;;;;;4919390;28;45418;-77
2023/01/31 05:51:20;;;;;;;;;14.00;12.00;;;;;;;;4918984;28;45858;-76
2023/01/31 05:53:47;;;;;;;;;13.50;12.75;;;;;;;;4918890;28;45439;-76
2023/01/31 05:56:12;;;;;;;;;15.75;14.25;;;;;;;;4919299;28;45385;-76
2023/01/31 05:58:38;;;;;;;;;15.25;13.50;;;;;;;;4918809;28;45326;-76
2023/01/31 06:01:03;;;;;;;;;13.00;13.00;;;;;;;;4918134;28;45444;-76
2023/01/31 06:03:28;;;;;;;;;16.25;11.75;;;;;;;;4918240;28;45422;-76
2023/01/31 06:05:53;;;;;;;;;9.25;9.25;;;;;;;;4919570;28;45447;-76
2023/01/31 06:08:19;;;;;;;;;12.00;9.50;;;;;;;;4918786;28;46196;-77
2023/01/31 06:10:44;;;;;;;;;15.00;12.25;;;;;;;;4919563;28;45335;-76
2023/01/31 06:13:09;;;;;;;;;14.00;12.00;;;;;;;;4917957;28;45247;-76
2023/01/31 06:15:36;;;;;;;;;14.50;14.25;;;;;;;;4918665;28;45403;-77
2023/01/31 06:18:01;;;;;;;;;16.00;12.75;;;;;;;;4918111;28;46077;-78
2023/01/31 06:20:27;;;;;;;;;18.50;16.50;;;;;;;;4918678;28;45319;-77
2023/01/31 06:22:53;;;;;;;;;9.00;8.00;;;;;;;;4902079;28;45356;-77
2023/01/31 06:25:18;;;;;;;;;14.25;10.25;;;;;;;;4919015;28;45486;-75
2023/01/31 06:27:43;;;;;;;;;13.75;9.00;;;;;;;;4918509;28;45757;-76
2023/01/31 06:30:09;;;;;;;;;10.75;10.75;;;;;;;;4917783;28;45240;-77
2023/01/31 06:32:35;;;;;;;;;12.75;10.25;;;;;;;;4919035;28;45450;-76
2023/01/31 06:35:00;;;;;;;;;16.00;10.50;;;;;;;;4916541;28;45476;-77
2023/01/31 06:37:25;;;;;;;;;12.25;10.75;;;;;;;;4918474;28;46483;-75
2023/01/31 06:39:50;;;;;;;;;12.00;9.50;;;;;;;;4918906;28;45422;-75
2023/01/31 06:42:15;;;;;;;;;16.75;14.75;;;;;;;;4919134;28;45339;-78
2023/01/31 06:44:41;;;;;;;;;18.75;12.75;;;;;;;;4918615;28;45331;-74
2023/01/31 06:47:06;;;;;;;;;11.00;7.75;;;;;;;;4918823;28;45464;-78
2023/01/31 06:49:31;;;;;;;;;8.00;7.50;;;;;;;;4917937;28;45346;-77
2023/01/31 06:51:56;;;;;;;;;11.50;11.50;;;;;;;;4918896;28;45425;-77
2023/01/31 06:54:21;;;;;;;;;13.25;11.00;;;;;;;;4918743;28;45397;-77
2023/01/31 06:56:47;;;;;;;;;12.00;10.00;;;;;;;;4916980;28;45733;-76
2023/01/31 06:59:12;;;;;;;;;10.50;6.75;;;;;;;;4918727;28;45369;-75
2023/01/31 07:01:37;;;;;;;;;10.50;9.25;;;;;;;;4918565;28;45570;-76
2023/01/31 07:04:02;;;;;;;;;10.75;10.75;;;;;;;;4918609;28;45323;-75
2023/01/31 07:06:28;;;;;;;;;10.75;9.50;;;;;;;;4918087;28;46178;-74
2023/01/31 07:08:53;;;;;;;;;10.00;7.00;;;;;;;;4918034;28;45269;-75
2023/01/31 07:11:18;;;;;;;;;7.50;7.00;;;;;;;;4918551;28;45397;-74
2023/01/31 07:13:46;;;;;;;;;8.50;7.50;;;;;;;;4918366;28;45392;-75
2023/01/31 07:16:11;;;;;;;;;8.25;8.00;;;;;;;;4908974;28;45571;-74
2023/01/31 07:18:37;;;;;;;;;13.00;8.00;;;;;;;;4899805;28;45354;-74
2023/01/31 07:21:02;;;;;;;;;13.25;8.75;;;;;;;;4898958;29;45328;-75
2023/01/31 07:23:27;;;;;;;;;11.50;8.25;;;;;;;;4899150;28;45338;-74
2023/01/31 07:25:52;;;;;;;;;22.50;18.75;;;;;;;;4897276;29;46667;-75
2023/01/31 07:28:18;;;;;;;;;17.25;13.00;;;;;;;;4898943;28;45360;-74
2023/01/31 07:30:45;;;;;;;;;12.75;11.25;;;;;;;;4899064;29;45343;-74
2023/01/31 07:33:10;;;;;;;;;16.00;15.00;;;;;;;;4898873;28;45384;-75
2023/01/31 07:35:35;;;;;;;;;14.50;14.25;;;;;;;;4898641;28;45412;-75
2023/01/31 07:38:00;;;;;;;;;10.75;8.00;;;;;;;;4898298;28;45430;-75
2023/01/31 07:40:26;;;;;;;;;3.50;0.75;;;;;;;;4898408;28;45463;-75
2023/01/31 07:42:56;;;;;;;;;10.50;7.00;;;;;;;;4898704;28;45400;-74
2023/01/31 07:45:21;;;;;;;;;7.00;5.75;;;;;;;;4898355;29;45259;-75
2023/01/31 07:47:46;;;;;;;;;8.75;6.00;;;;;;;;4898171;28;45244;-75
2023/01/31 07:50:11;;;;;;;;;6.75;6.75;;;;;;;;4898676;28;45346;-76
2023/01/31 07:52:36;;;;;;;;;6.25;4.25;;;;;;;;4908489;28;45327;-76
2023/01/31 07:55:02;;;;;;;;;6.00;2.00;;;;;;;;4916943;28;45401;-75
2023/01/31 07:57:29;;;;;;;;;7.00;6.25;;;;;;;;4917292;28;45358;-76
2023/01/31 07:59:54;;;;;;;;;8.25;8.00;;;;;;;;4917178;28;45366;-76
2023/01/31 08:05:04;;;;;;;;;6.50;5.75;;;;;;;;4917961;28;45313;-78
2023/01/31 08:07:29;;;;;;;;;8.50;8.50;;;;;;;;4917711;28;45468;-76
2023/01/31 08:09:55;;;;;;;;;6.00;6.00;;;;;;;;4921316;28;45434;-77
2023/01/31 08:12:20;;;;;;;;;7.00;6.50;;;;;;;;4921361;28;45413;-78
2023/01/31 08:14:45;;;;;;;;;6.50;5.50;;;;;;;;4921159;28;45387;-77
2023/01/31 08:17:11;;;;;;;;;9.00;7.50;;;;;;;;4920780;28;45349;-77
2023/01/31 08:19:36;;;;;;;;;14.00;5.00;;;;;;;;4920945;28;45356;-77
2023/01/31 08:22:03;;;;;;;;;9.50;9.00;;;;;;;;4921231;28;45384;-77
2023/01/31 08:24:29;;;;;;;;;8.00;6.25;;;;;;;;4921983;28;45396;-76
2023/01/31 08:26:54;;;;;;;;;6.75;4.00;;;;;;;;4921619;28;45340;-75
2023/01/31 08:29:19;;;;;;;;;10.50;6.75;;;;;;;;4921705;28;45349;-75
2023/01/31 08:31:45;;;;;;;;;6.75;6.75;;;;;;;;4921829;28;45452;-74
2023/01/31 08:34:10;;;;;;;;;10.00;7.50;;;;;;;;4910353;28;46106;-74
2023/01/31 08:36:35;;;;;;;;;10.00;7.50;;;;;;;;4896272;28;44853;-74
2023/01/31 08:39:01;;;;;;;;;12.25;7.00;;;;;;;;4894908;28;45397;-74
2023/01/31 08:41:26;;;;;;;;;8.00;7.00;;;;;;;;4900298;28;45444;-74
2023/01/31 08:43:54;;;;;;;;;11.25;8.25;;;;;;;;4900610;29;46209;-75
2023/01/31 08:46:19;;;;;;;;;9.25;8.25;;;;;;;;4899546;29;45425;-75
2023/01/31 08:48:44;;;;;;;;;22.75;16.00;;;;;;;;4900511;28;45392;-75
2023/01/31 08:51:11;;;;;;;;;11.00;9.00;;;;;;;;4900996;29;45369;-75
2023/01/31 08:53:40;;;;;;;;;9.75;8.75;;;;;;;;4917860;28;45492;-74
2023/01/31 08:56:06;;;;;;;;;8.50;6.75;;;;;;;;4919327;28;45402;-75
2023/01/31 08:58:32;;;;;;;;;13.00;11.00;;;;;;;;4911312;28;45684;-75
2023/01/31 09:01:05;;;;;;;;;12.25;11.25;;;;;;;;4910176;28;45702;-74
2023/01/31 09:03:30;;;;;;;;;2.25;2.00;;;;;;;;4912807;28;45801;-76
2023/01/31 09:06:00;;;;;;;;;11.25;9.00;;;;;;;;4903701;28;45742;-76
2023/01/31 09:08:25;;;;;;;;;7.50;7.50;;;;;;;;4904583;28;45494;-75
2023/01/31 09:10:51;;;;;;;;;11.50;8.75;;;;;;;;4899808;28;45478;-76
2023/01/31 09:13:17;;;;;;;;;9.25;8.00;;;;;;;;4899947;28;46951;-76
2023/01/31 09:15:42;;;;;;;;;11.50;8.25;;;;;;;;4900108;28;45435;-75
2023/01/31 09:18:07;;;;;;;;;7.00;7.00;;;;;;;;4899720;29;45396;-75
2023/01/31 09:20:32;;;;;;;;;9.00;6.25;;;;;;;;4898959;28;45498;-76
2023/01/31 09:22:57;;;;;;;;;3.00;3.00;;;;;;;;4899208;28;46647;-76
2023/01/31 09:25:23;;;;;;;;;8.75;6.50;;;;;;;;4899690;28;45423;-76
2023/01/31 09:27:50;;;;;;;;;8.00;4.00;;;;;;;;4899227;28;45395;-76
2023/01/31 09:30:16;;;;;;;;;6.75;4.25;;;;;;;;4900750;28;45280;-76
2023/01/31 09:32:41;;;;;;;;;4.00;3.00;;;;;;;;4899831;28;45316;-75
2023/01/31 09:35:07;;;;;;;;;8.25;4.75;;;;;;;;4899864;28;45510;-76
2023/01/31 09:37:32;;;;;;;;;6.00;6.00;;;;;;;;4900351;29;45325;-74
2023/01/31 09:39:57;;;;;;;;;5.00;5.00;;;;;;;;4900808;29;45364;-74
2023/01/31 09:42:29;;;;;;;;;5.25;4.00;;;;;;;;4913014;28;47059;-74
2023/01/31 09:45:03;;;;;;;;;5.50;4.50;;;;;;;;4919639;28;45287;-75
2023/01/31 09:47:29;;;;;;;;;7.00;6.75;;;;;;;;4919663;28;45380;-75
2023/01/31 09:49:58;;;;;;;;;5.75;5.75;;;;;;;;4918644;28;45367;-75
2023/01/31 09:52:26;;;;;;;;;4.50;4.50;;;;;;;;4918854;28;46393;-75
2023/01/31 09:54:51;;;;;;;;;8.00;6.00;;;;;;;;4918026;28;45436;-75
2023/01/31 09:57:21;;;;;;;;;5.50;4.00;;;;;;;;4919368;28;45327;-75
2023/01/31 09:59:48;;;;;;;;;8.50;6.50;;;;;;;;4917737;28;45470;-75
2023/01/31 10:02:36;;;;;;;;;4.25;3.00;;;;;;;;4919150;28;45390;-75
2023/01/31 10:05:22;;;;;;;;;3.25;3.25;;;;;;;;4918715;28;45388;-75
2023/01/31 10:08:19;;;;;;;;;8.50;7.00;;;;;;;;4918150;28;45671;-75
2023/01/31 10:10:51;;;;;;;;;12.00;9.00;;;;;;;;4898364;29;45401;-79
2023/01/31 10:13:20;;;;;;;;;4.00;4.00;;;;;;;;4898468;29;46294;-80
2023/01/31 10:15:48;;;;;;;;;7.75;5.25;;;;;;;;4897902;29;45367;-80
2023/01/31 10:18:24;;;;;;;;;9.00;6.50;;;;;;;;4898552;29;45312;-80
2023/01/31 10:20:52;;;;;;;;;10.50;8.00;;;;;;;;4898244;29;45626;-80
2023/01/31 10:23:24;;;;;;;;;8.00;7.00;;;;;;;;4897891;29;46445;-81
2023/01/31 10:26:05;;;;;;;;;4.00;4.00;;;;;;;;4887967;29;45385;-80
2023/01/31 10:28:35;;;;;;;;;11.25;8.25;;;;;;;;4879362;29;45304;-81
2023/01/31 10:31:18;;;;;;;;;4.50;4.50;;;;;;;;4879797;29;45387;-80
2023/01/31 10:33:46;;;;;;;;;8.75;8.00;;;;;;;;4878933;29;45407;-79
2023/01/31 10:36:34;;;;;;;;;9.50;7.00;;;;;;;;4878747;29;45539;-81
2023/01/31 10:38:59;;;;;;;;;8.25;6.50;;;;;;;;4871247;29;45476;-80
2023/01/31 10:41:38;;;;;;;;;6.00;6.00;;;;;;;;4873098;29;45356;-80
2023/01/31 10:44:06;;;;;;;;;8.50;7.00;;;;;;;;4860079;29;45341;-81
2023/01/31 10:46:31;;;;;;;;;7.00;7.00;;;;;;;;4872509;29;45468;-81
2023/01/31 10:48:56;;;;;;;;;8.75;5.25;;;;;;;;4879475;29;45439;-81
2023/01/31 10:51:24;;;;;;;;;3.50;3.00;;;;;;;;4881752;29;45395;-81
2023/01/31 10:54:27;;;;;;;;;6.75;4.25;;;;;;;;4881158;29;46078;-81
2023/01/31 10:56:53;;;;;;;;;14.75;9.75;;;;;;;;4878636;29;45525;-81
2023/01/31 10:59:23;;;;;;;;;7.00;4.75;;;;;;;;4878705;29;45421;-82
2023/01/31 11:01:48;;;;;;;;;8.75;8.00;;;;;;;;4878472;29;45558;-80
2023/01/31 11:04:22;;;;;;;;;5.00;4.25;;;;;;;;4877895;29;45733;-80
2023/01/31 11:06:47;;;;;;;;;13.00;8.75;;;;;;;;4878736;29;45526;-81
2023/01/31 11:09:13;;;;;;;;;7.25;6.50;;;;;;;;4878933;29;45434;-82
2023/01/31 11:11:51;;;;;;;;;8.50;6.75;;;;;;;;4878038;29;45509;-81
2023/01/31 11:14:17;;;;;;;;;6.00;6.00;;;;;;;;4878430;29;46168;-82
2023/01/31 11:16:43;;;;;;;;;10.75;7.00;;;;;;;;4878139;29;45655;-81
2023/01/31 11:19:18;;;;;;;;;8.00;8.00;;;;;;;;4876878;29;45676;-81
2023/01/31 11:21:47;;;;;;;;;3.75;3.00;;;;;;;;4890857;28;45712;-80
2023/01/31 11:24:18;;;;;;;;;4.00;3.75;;;;;;;;4896065;29;45789;-81
2023/01/31 11:26:50;;;;;;;;;6.50;3.00;;;;;;;;4897370;29;45439;-81
2023/01/31 11:29:17;;;;;;;;;5.00;4.00;;;;;;;;4898323;28;45461;-81
2023/01/31 11:31:46;;;;;;;;;5.25;4.00;;;;;;;;4899354;29;45597;-81
2023/01/31 11:34:25;;;;;;;;;8.00;4.50;;;;;;;;4899772;28;46371;-81
2023/01/31 11:36:51;;;;;;;;;5.00;4.25;;;;;;;;4899958;28;45524;-81
2023/01/31 11:39:23;;;;;;;;;7.25;5.50;;;;;;;;4899633;28;45443;-81
2023/01/31 11:41:49;;;;;;;;;5.00;5.00;;;;;;;;4900436;28;45380;-82
2023/01/31 11:44:15;;;;;;;;;5.00;5.00;;;;;;;;4906606;29;46104;-82
2023/01/31 11:46:46;;;;;;;;;4.00;3.00;;;;;;;;4924639;28;45405;-78
2023/01/31 11:49:13;;;;;;;;;9.00;7.00;;;;;;;;4923926;28;45410;-79
2023/01/31 11:51:39;;;;;;;;;7.00;3.25;;;;;;;;4912195;28;45331;-79
2023/01/31 11:54:05;;;;;;;;;7.25;5.00;;;;;;;;4916418;28;45317;-79
2023/01/31 11:56:33;;;;;;;;;6.75;4.00;;;;;;;;4904603;28;45464;-78
2023/01/31 11:59:06;;;;;;;;;4.75;2.75;;;;;;;;4905306;28;45538;-81
2023/01/31 12:01:33;;;;;;;;;5.25;5.25;;;;;;;;4908847;28;45422;-86
2023/01/31 12:04:00;;;;;;;;;3.00;3.00;;;;;;;;4906309;29;47832;-85
2023/01/31 12:06:33;;;;;;;;;3.75;3.50;;;;;;;;4907103;28;45263;-86
2023/01/31 12:09:00;;;;;;;;;7.00;5.50;;;;;;;;4907679;28;45427;-81
2023/01/31 12:11:28;;;;;;;;;5.00;5.00;;;;;;;;4905271;28;45403;-82
2023/01/31 12:13:59;;;;;;;;;2.00;2.00;;;;;;;;4906005;28;46490;-84
2023/01/31 12:16:25;;;;;;;;;4.75;4.00;;;;;;;;4906254;28;45370;-85
2023/01/31 12:18:57;;;;;;;;;5.00;5.00;;;;;;;;4906456;29;45416;-83
2023/01/31 12:21:37;;;;;;;;;6.50;4.75;;;;;;;;4907588;28;45377;-84
2023/01/31 12:24:02;;;;;;;;;5.75;4.75;;;;;;;;4905244;29;47286;-84
2023/01/31 12:26:42;;;;;;;;;4.25;4.25;;;;;;;;4896363;28;46218;-84
2023/01/31 12:29:18;;;;;;;;;8.75;7.50;;;;;;;;4894272;28;45501;-82
2023/01/31 12:31:43;;;;;;;;;5.50;4.50;;;;;;;;4902783;29;45634;-80
2023/01/31 12:34:08;;;;;;;;;4.75;3.50;;;;;;;;4906029;28;46162;-79
2023/01/31 12:36:52;;;;;;;;;5.75;4.75;;;;;;;;4904079;29;45447;-79
2023/01/31 12:39:26;;;;;;;;;7.00;7.00;;;;;;;;4890190;29;45579;-82
2023/01/31 12:41:57;;;;;;;;;7.75;4.75;;;;;;;;4904770;28;45589;-82
2023/01/31 12:44:44;;;;;;;;;4.00;4.00;;;;;;;;4901460;29;46850;-82
2023/01/31 12:47:15;;;;;;;;;2.00;2.00;;;;;;;;4888725;29;45453;-81
2023/01/31 12:49:43;;;;;;;;;5.00;4.00;;;;;;;;4901949;29;45367;-81
2023/01/31 12:52:15;;;;;;;;;6.25;4.00;;;;;;;;4908085;28;45440;-82
2023/01/31 12:54:53;;;;;;;;;5.00;3.50;;;;;;;;4904318;28;45438;-81
2023/01/31 12:57:34;;;;;;;;;4.50;3.25;;;;;;;;4899657;28;45406;-81
2023/01/31 13:00:07;;;;;;;;;6.50;4.25;;;;;;;;4898916;29;45507;-82
2023/01/31 13:02:39;;;;;;;;;3.00;2.00;;;;;;;;4900776;28;45477;-80
2023/01/31 13:05:07;;;;;;;;;3.00;2.00;;;;;;;;4900235;28;46875;-81
2023/01/31 13:07:39;;;;;;;;;5.50;3.75;;;;;;;;4899102;29;45478;-79
2023/01/31 13:10:06;;;;;;;;;4.75;1.75;;;;;;;;4898676;29;45686;-81
2023/01/31 13:12:33;;;;;;;;;2.25;2.00;;;;;;;;4899784;28;45474;-83
2023/01/31 13:15:04;;;;;;;;;6.00;4.00;;;;;;;;4900480;28;45585;-84
2023/01/31 13:17:31;;;;;;;;;4.50;3.50;;;;;;;;4902005;28;45426;-83
2023/01/31 13:19:59;;;;;;;;;6.50;4.75;;;;;;;;4903213;28;45706;-82
2023/01/31 13:22:27;;;;;;;;;0.50;0.50;;;;;;;;4903044;28;45433;-82
2023/01/31 13:24:57;;;;;;;;;3.75;2.00;;;;;;;;4902072;28;45445;-82
2023/01/31 13:27:32;;;;;;;;;3.00;3.00;;;;;;;;4902825;28;45493;-83
2023/01/31 13:30:07;;;;;;;;;7.50;5.00;;;;;;;;4902582;28;45348;-82
2023/01/31 13:32:37;;;;;;;;;3.00;2.25;;;;;;;;4902601;29;45354;-82
2023/01/31 13:35:18;;;;;;;;;3.00;3.00;;;;;;;;4900825;28;45841;-83
2023/01/31 13:37:45;;;;;;;;;2.75;2.00;;;;;;;;4900651;28;45383;-82
2023/01/31 13:40:20;;;;;;;;;3.75;3.00;;;;;;;;4901438;28;45429;-83
2023/01/31 13:42:46;;;;;;;;;2.50;1.75;;;;;;;;4903458;28;45348;-81
2023/01/31 13:45:20;;;;;;;;;3.00;3.00;;;;;;;;4901810;28;46021;-81
2023/01/31 13:47:48;;;;;;;;;4.00;2.75;;;;;;;;4901165;29;45310;-79
2023/01/31 13:50:32;;;;;;;;;5.00;2.25;;;;;;;;4900575;28;45336;-78
2023/01/31 13:53:00;;;;;;;;;1.00;0.00;;;;;;;;4912321;28;45519;-80
2023/01/31 13:55:31;;;;;;;;;3.00;3.00;;;;;;;;4919699;28;47334;-79
2023/01/31 13:58:02;;;;;;;;;5.00;2.25;;;;;;;;4918010;28;45379;-79
2023/01/31 14:00:40;;;;;;;;;3.50;2.25;;;;;;;;4919759;28;45429;-79
2023/01/31 14:03:05;;;;;;;;;2.75;2.75;;;;;;;;4919766;28;45313;-79
2023/01/31 14:05:49;;;;;;;;;0.00;0.00;;;;;;;;4917378;28;45654;-78
2023/01/31 14:08:23;;;;;;;;;3.50;3.00;;;;;;;;4917882;28;45443;-79
2023/01/31 14:10:49;;;;;;;;;2.25;1.75;;;;;;;;4919041;28;45433;-78
2023/01/31 14:13:23;;;;;;;;;3.75;2.00;;;;;;;;4919190;28;45560;-78
2023/01/31 14:15:49;;;;;;;;;2.00;2.00;;;;;;;;4919311;28;45404;-79
2023/01/31 14:18:33;;;;;;;;;3.50;2.00;;;;;;;;4919025;28;45266;-78
2023/01/31 14:21:18;;;;;;;;;4.50;3.00;;;;;;;;4919452;28;45393;-79
2023/01/31 14:23:46;;;;;;;;;2.00;2.00;;;;;;;;4918890;28;45396;-79
2023/01/31 14:26:29;;;;;;;;;3.00;3.00;;;;;;;;4919097;28;45688;-79
2023/01/31 14:28:55;;;;;;;;;3.25;2.75;;;;;;;;4917898;28;46188;-78
2023/01/31 14:31:20;;;;;;;;;2.50;2.25;;;;;;;;4919309;28;45523;-79
2023/01/31 14:33:47;;;;;;;;;4.00;2.00;;;;;;;;4919341;28;45451;-79
2023/01/31 14:36:21;;;;;;;;;4.00;3.25;;;;;;;;4919718;28;46111;-78
2023/01/31 14:38:46;;;;;;;;;1.50;1.50;;;;;;;;4921245;28;45240;-79
2023/01/31 14:41:35;;;;;;;;;3.25;1.25;;;;;;;;4926422;28;45347;-79
2023/01/31 14:44:07;;;;;;;;;5.25;3.75;;;;;;;;4925318;28;45354;-79
2023/01/31 14:46:32;;;;;;;;;2.00;2.00;;;;;;;;4936118;28;46631;-78